Calafate, Argentina
Current Conditions -  °F | °C
As of 4:00 PM on Friday 24 Oct 2014 (Local Time) from SAWG Reporting Station
Clear Clear  
Wind Chill: 57°   Ceiling: Unl
Heat Index: 57°   Visibility: 6mi
Dew Point: 32°   Wind: 37mph
Humidity: 38%   Direction: 270°W
Pressure: 29.71"   Gusts: 48mph
Location:  50.33°S, 72.27°W
Report Text: SAWG 241900Z 27032G42KT CAVOK 14/00 Q1006
Loading
Personal Weather Stations






























Interactive Weather Map
Tropical Storm Tracking
New forecast layout! Learn more

10-Day Weather Forecast

Advertisements
Track Severe Weather on mobile